sensor_id;sensor_type;location;lat;lon;timestamp;temperature;humidity
6654;DHT22;3363;50.942;7.034;2023-05-29T00:01:36;20.50;43.20
6654;DHT22;3363;50.942;7.034;2023-05-29T00:04:03;20.60;42.90
6654;DHT22;3363;50.942;7.034;2023-05-29T00:06:30;20.70;42.70
6654;DHT22;3363;50.942;7.034;2023-05-29T00:08:56;20.70;42.50
6654;DHT22;3363;50.942;7.034;2023-05-29T00:11:23;20.70;42.70
6654;DHT22;3363;50.942;7.034;2023-05-29T00:13:50;20.70;42.70
6654;DHT22;3363;50.942;7.034;2023-05-29T00:16:18;20.70;42.80
6654;DHT22;3363;50.942;7.034;2023-05-29T00:18:45;20.70;42.90
6654;DHT22;3363;50.942;7.034;2023-05-29T00:21:12;20.70;42.90
6654;DHT22;3363;50.942;7.034;2023-05-29T00:23:39;20.60;42.80
6654;DHT22;3363;50.942;7.034;2023-05-29T00:26:05;20.60;42.90
6654;DHT22;3363;50.942;7.034;2023-05-29T00:28:32;20.60;43.00
6654;DHT22;3363;50.942;7.034;2023-05-29T00:30:59;20.40;43.50
6654;DHT22;3363;50.942;7.034;2023-05-29T00:33:27;20.30;43.60
6654;DHT22;3363;50.942;7.034;2023-05-29T00:35:54;20.30;43.60
6654;DHT22;3363;50.942;7.034;2023-05-29T00:38:20;20.20;44.00
6654;DHT22;3363;50.942;7.034;2023-05-29T00:40:47;20.30;43.70
6654;DHT22;3363;50.942;7.034;2023-05-29T00:43:14;20.20;44.00
6654;DHT22;3363;50.942;7.034;2023-05-29T00:45:40;20.30;43.50
6654;DHT22;3363;50.942;7.034;2023-05-29T00:48:07;20.30;44.00
6654;DHT22;3363;50.942;7.034;2023-05-29T00:50:36;20.30;43.70
6654;DHT22;3363;50.942;7.034;2023-05-29T00:53:02;20.30;43.70
6654;DHT22;3363;50.942;7.034;2023-05-29T00:55:30;20.40;43.80
6654;DHT22;3363;50.942;7.034;2023-05-29T00:57:56;20.30;43.60
6654;DHT22;3363;50.942;7.034;2023-05-29T01:00:23;20.30;43.60
6654;DHT22;3363;50.942;7.034;2023-05-29T01:02:50;20.30;43.80
6654;DHT22;3363;50.942;7.034;2023-05-29T01:05:18;20.20;43.60
6654;DHT22;3363;50.942;7.034;2023-05-29T01:07:46;20.20;43.80
6654;DHT22;3363;50.942;7.034;2023-05-29T01:10:14;20.20;44.60
6654;DHT22;3363;50.942;7.034;2023-05-29T01:12:43;20.20;43.90
6654;DHT22;3363;50.942;7.034;2023-05-29T01:15:14;20.20;43.80
6654;DHT22;3363;50.942;7.034;2023-05-29T01:17:46;20.20;43.80
6654;DHT22;3363;50.942;7.034;2023-05-29T01:20:17;20.20;43.80
6654;DHT22;3363;50.942;7.034;2023-05-29T01:22:54;20.10;43.80
6654;DHT22;3363;50.942;7.034;2023-05-29T01:25:29;20.10;43.80
6654;DHT22;3363;50.942;7.034;2023-05-29T01:27:58;20.10;43.80
6654;DHT22;3363;50.942;7.034;2023-05-29T01:30:28;20.00;44.00
6654;DHT22;3363;50.942;7.034;2023-05-29T01:32:54;20.00;44.00
6654;DHT22;3363;50.942;7.034;2023-05-29T01:35:21;20.00;43.80
6654;DHT22;3363;50.942;7.034;2023-05-29T01:37:48;19.90;44.10
6654;DHT22;3363;50.942;7.034;2023-05-29T01:40:14;19.90;44.10
6654;DHT22;3363;50.942;7.034;2023-05-29T01:42:41;19.90;44.10
6654;DHT22;3363;50.942;7.034;2023-05-29T01:45:10;19.90;44.00
6654;DHT22;3363;50.942;7.034;2023-05-29T01:47:37;19.90;43.40
6654;DHT22;3363;50.942;7.034;2023-05-29T01:50:04;19.80;43.60
6654;DHT22;3363;50.942;7.034;2023-05-29T01:52:31;19.70;44.10
6654;DHT22;3363;50.942;7.034;2023-05-29T01:54:58;19.80;44.10
6654;DHT22;3363;50.942;7.034;2023-05-29T01:57:24;19.80;43.50
6654;DHT22;3363;50.942;7.034;2023-05-29T01:59:52;19.70;43.90
6654;DHT22;3363;50.942;7.034;2023-05-29T02:02:21;19.70;43.90
6654;DHT22;3363;50.942;7.034;2023-05-29T02:04:47;19.70;43.90
6654;DHT22;3363;50.942;7.034;2023-05-29T02:07:14;19.50;43.60
6654;DHT22;3363;50.942;7.034;2023-05-29T02:09:41;19.40;44.20
6654;DHT22;3363;50.942;7.034;2023-05-29T02:12:08;19.50;43.80
6654;DHT22;3363;50.942;7.034;2023-05-29T02:14:35;19.20;43.90
6654;DHT22;3363;50.942;7.034;2023-05-29T02:17:02;19.20;44.40
6654;DHT22;3363;50.942;7.034;2023-05-29T02:19:31;19.30;44.00
6654;DHT22;3363;50.942;7.034;2023-05-29T02:21:57;19.40;43.80
6654;DHT22;3363;50.942;7.034;2023-05-29T02:24:24;19.50;43.60
6654;DHT22;3363;50.942;7.034;2023-05-29T02:26:51;19.50;43.30
6654;DHT22;3363;50.942;7.034;2023-05-29T02:29:17;19.30;43.70
6654;DHT22;3363;50.942;7.034;2023-05-29T02:31:44;19.30;43.60
6654;DHT22;3363;50.942;7.034;2023-05-29T02:34:11;19.10;43.90
6654;DHT22;3363;50.942;7.034;2023-05-29T02:36:39;19.10;44.00
6654;DHT22;3363;50.942;7.034;2023-05-29T02:39:05;19.00;43.80
6654;DHT22;3363;50.942;7.034;2023-05-29T02:41:32;19.10;43.80
6654;DHT22;3363;50.942;7.034;2023-05-29T02:43:59;19.20;43.50
6654;DHT22;3363;50.942;7.034;2023-05-29T02:46:25;19.00;43.50
6654;DHT22;3363;50.942;7.034;2023-05-29T02:48:52;19.00;43.60
6654;DHT22;3363;50.942;7.034;2023-05-29T02:51:19;18.60;42.30
6654;DHT22;3363;50.942;7.034;2023-05-29T02:53:47;18.50;44.70
6654;DHT22;3363;50.942;7.034;2023-05-29T02:56:14;18.50;44.40
6654;DHT22;3363;50.942;7.034;2023-05-29T02:58:42;18.50;44.60
6654;DHT22;3363;50.942;7.034;2023-05-29T03:01:08;18.70;44.10
6654;DHT22;3363;50.942;7.034;2023-05-29T03:03:35;18.80;43.90
6654;DHT22;3363;50.942;7.034;2023-05-29T03:06:02;18.80;43.10
6654;DHT22;3363;50.942;7.034;2023-05-29T03:08:29;18.90;43.50
6654;DHT22;3363;50.942;7.034;2023-05-29T03:10:57;19.00;43.40
6654;DHT22;3363;50.942;7.034;2023-05-29T03:13:24;19.00;43.00
6654;DHT22;3363;50.942;7.034;2023-05-29T03:15:50;19.10;43.00
6654;DHT22;3363;50.942;7.034;2023-05-29T03:18:21;19.10;43.00
6654;DHT22;3363;50.942;7.034;2023-05-29T03:20:48;19.10;43.00
6654;DHT22;3363;50.942;7.034;2023-05-29T03:23:15;19.00;43.00
6654;DHT22;3363;50.942;7.034;2023-05-29T03:25:41;18.90;43.00
6654;DHT22;3363;50.942;7.034;2023-05-29T03:28:09;18.80;43.10
6654;DHT22;3363;50.942;7.034;2023-05-29T03:30:36;18.80;43.10
6654;DHT22;3363;50.942;7.034;2023-05-29T03:33:03;18.70;43.20
6654;DHT22;3363;50.942;7.034;2023-05-29T03:35:30;18.60;43.60
6654;DHT22;3363;50.942;7.034;2023-05-29T03:37:56;18.70;43.50
6654;DHT22;3363;50.942;7.034;2023-05-29T03:40:23;18.60;43.50
6654;DHT22;3363;50.942;7.034;2023-05-29T03:42:50;18.40;44.20
6654;DHT22;3363;50.942;7.034;2023-05-29T03:45:18;18.60;43.80
6654;DHT22;3363;50.942;7.034;2023-05-29T03:47:45;18.60;43.60
6654;DHT22;3363;50.942;7.034;2023-05-29T03:50:12;18.20;44.30
6654;DHT22;3363;50.942;7.034;2023-05-29T03:52:40;18.40;44.00
6654;DHT22;3363;50.942;7.034;2023-05-29T03:55:08;18.50;43.40
6654;DHT22;3363;50.942;7.034;2023-05-29T03:57:38;18.60;43.50
6654;DHT22;3363;50.942;7.034;2023-05-29T04:00:07;18.60;43.60
6654;DHT22;3363;50.942;7.034;2023-05-29T04:02:36;18.50;43.50
6654;DHT22;3363;50.942;7.034;2023-05-29T04:05:04;18.60;43.40
6654;DHT22;3363;50.942;7.034;2023-05-29T04:07:31;18.70;43.40
6654;DHT22;3363;50.942;7.034;2023-05-29T04:09:58;18.70;43.30
6654;DHT22;3363;50.942;7.034;2023-05-29T04:12:25;18.70;43.20
6654;DHT22;3363;50.942;7.034;2023-05-29T04:14:51;18.70;43.20
6654;DHT22;3363;50.942;7.034;2023-05-29T04:17:18;18.50;43.20
6654;DHT22;3363;50.942;7.034;2023-05-29T04:19:46;18.60;43.20
6654;DHT22;3363;50.942;7.034;2023-05-29T04:22:12;18.60;43.30
6654;DHT22;3363;50.942;7.034;2023-05-29T04:24:39;18.50;43.40
6654;DHT22;3363;50.942;7.034;2023-05-29T04:27:07;18.50;43.50
6654;DHT22;3363;50.942;7.034;2023-05-29T04:29:34;18.60;43.50
6654;DHT22;3363;50.942;7.034;2023-05-29T04:32:01;18.40;43.70
6654;DHT22;3363;50.942;7.034;2023-05-29T04:34:28;18.50;43.80
6654;DHT22;3363;50.942;7.034;2023-05-29T04:36:57;18.50;43.60
6654;DHT22;3363;50.942;7.034;2023-05-29T04:39:24;18.50;43.60
6654;DHT22;3363;50.942;7.034;2023-05-29T04:41:50;18.60;43.70
6654;DHT22;3363;50.942;7.034;2023-05-29T04:44:17;18.60;43.70
6654;DHT22;3363;50.942;7.034;2023-05-29T04:46:44;18.60;43.40
6654;DHT22;3363;50.942;7.034;2023-05-29T04:49:12;18.30;44.40
6654;DHT22;3363;50.942;7.034;2023-05-29T04:51:39;18.40;44.20
6654;DHT22;3363;50.942;7.034;2023-05-29T04:54:07;18.40;44.20
6654;DHT22;3363;50.942;7.034;2023-05-29T04:56:35;18.40;44.10
6654;DHT22;3363;50.942;7.034;2023-05-29T04:59:02;18.50;44.00
6654;DHT22;3363;50.942;7.034;2023-05-29T05:01:28;18.50;43.90
6654;DHT22;3363;50.942;7.034;2023-05-29T05:03:58;18.40;43.40
6654;DHT22;3363;50.942;7.034;2023-05-29T05:06:25;18.30;43.80
6654;DHT22;3363;50.942;7.034;2023-05-29T05:08:52;18.80;42.60
6654;DHT22;3363;50.942;7.034;2023-05-29T05:11:22;19.20;41.70
6654;DHT22;3363;50.942;7.034;2023-05-29T05:13:49;19.30;41.60
6654;DHT22;3363;50.942;7.034;2023-05-29T05:16:15;19.70;40.30
6654;DHT22;3363;50.942;7.034;2023-05-29T05:18:43;19.10;42.10
6654;DHT22;3363;50.942;7.034;2023-05-29T05:21:10;18.60;43.00
6654;DHT22;3363;50.942;7.034;2023-05-29T05:23:37;18.50;43.50
6654;DHT22;3363;50.942;7.034;2023-05-29T05:26:03;18.40;43.90
6654;DHT22;3363;50.942;7.034;2023-05-29T05:28:32;18.20;44.30
6654;DHT22;3363;50.942;7.034;2023-05-29T05:30:59;18.30;44.50
6654;DHT22;3363;50.942;7.034;2023-05-29T05:33:27;18.20;44.30
6654;DHT22;3363;50.942;7.034;2023-05-29T05:35:53;18.30;44.50
6654;DHT22;3363;50.942;7.034;2023-05-29T05:38:20;18.20;45.00
6654;DHT22;3363;50.942;7.034;2023-05-29T05:40:47;18.00;44.80
6654;DHT22;3363;50.942;7.034;2023-05-29T05:43:13;18.10;44.40
6654;DHT22;3363;50.942;7.034;2023-05-29T05:45:42;18.10;44.50
6654;DHT22;3363;50.942;7.034;2023-05-29T05:48:08;18.20;44.30
6654;DHT22;3363;50.942;7.034;2023-05-29T05:50:35;18.10;44.60
6654;DHT22;3363;50.942;7.034;2023-05-29T05:53:02;18.00;45.20
6654;DHT22;3363;50.942;7.034;2023-05-29T05:55:28;18.10;45.00
6654;DHT22;3363;50.942;7.034;2023-05-29T05:57:55;18.00;45.20
6654;DHT22;3363;50.942;7.034;2023-05-29T06:00:22;17.80;46.20
6654;DHT22;3363;50.942;7.034;2023-05-29T06:02:50;17.50;47.00
6654;DHT22;3363;50.942;7.034;2023-05-29T06:05:16;17.80;46.50
6654;DHT22;3363;50.942;7.034;2023-05-29T06:07:43;18.00;46.80
6654;DHT22;3363;50.942;7.034;2023-05-29T06:10:10;17.90;45.80
6654;DHT22;3363;50.942;7.034;2023-05-29T06:12:37;18.00;45.80
6654;DHT22;3363;50.942;7.034;2023-05-29T06:15:04;18.00;45.90
6654;DHT22;3363;50.942;7.034;2023-05-29T06:17:32;18.10;45.90
6654;DHT22;3363;50.942;7.034;2023-05-29T06:20:00;18.20;45.10
6654;DHT22;3363;50.942;7.034;2023-05-29T06:22:26;17.90;45.80
6654;DHT22;3363;50.942;7.034;2023-05-29T06:24:53;18.00;45.80
6654;DHT22;3363;50.942;7.034;2023-05-29T06:27:20;19.10;44.70
6654;DHT22;3363;50.942;7.034;2023-05-29T06:29:49;24.00;35.50
6654;DHT22;3363;50.942;7.034;2023-05-29T06:32:15;26.20;28.70
6654;DHT22;3363;50.942;7.034;2023-05-29T06:34:42;27.50;26.90
6654;DHT22;3363;50.942;7.034;2023-05-29T06:37:10;24.50;30.80
6654;DHT22;3363;50.942;7.034;2023-05-29T06:39:37;23.60;32.30
6654;DHT22;3363;50.942;7.034;2023-05-29T06:42:07;21.10;37.20
6654;DHT22;3363;50.942;7.034;2023-05-29T06:44:33;19.80;40.50
6654;DHT22;3363;50.942;7.034;2023-05-29T06:47:00;19.00;42.60
6654;DHT22;3363;50.942;7.034;2023-05-29T06:49:27;18.70;43.50
6654;DHT22;3363;50.942;7.034;2023-05-29T06:51:54;18.70;44.00
6654;DHT22;3363;50.942;7.034;2023-05-29T06:54:22;18.60;44.20
6654;DHT22;3363;50.942;7.034;2023-05-29T06:56:48;18.50;44.70
6654;DHT22;3363;50.942;7.034;2023-05-29T06:59:16;18.50;44.70
6654;DHT22;3363;50.942;7.034;2023-05-29T07:01:42;18.00;46.60
6654;DHT22;3363;50.942;7.034;2023-05-29T07:04:10;18.10;46.00
6654;DHT22;3363;50.942;7.034;2023-05-29T07:06:37;18.20;46.10
6654;DHT22;3363;50.942;7.034;2023-05-29T07:09:04;18.30;46.40
6654;DHT22;3363;50.942;7.034;2023-05-29T07:11:32;18.10;45.30
6654;DHT22;3363;50.942;7.034;2023-05-29T07:13:58;18.10;46.10
6654;DHT22;3363;50.942;7.034;2023-05-29T07:16:25;18.10;46.60
6654;DHT22;3363;50.942;7.034;2023-05-29T07:18:52;18.10;46.30
6654;DHT22;3363;50.942;7.034;2023-05-29T07:21:18;18.20;46.00
6654;DHT22;3363;50.942;7.034;2023-05-29T07:23:45;18.30;46.00
6654;DHT22;3363;50.942;7.034;2023-05-29T07:26:12;18.30;45.70
6654;DHT22;3363;50.942;7.034;2023-05-29T07:28:40;18.20;45.40
6654;DHT22;3363;50.942;7.034;2023-05-29T07:31:06;18.30;45.60
6654;DHT22;3363;50.942;7.034;2023-05-29T07:33:33;18.30;45.60
6654;DHT22;3363;50.942;7.034;2023-05-29T07:36:00;18.20;45.90
6654;DHT22;3363;50.942;7.034;2023-05-29T07:38:27;18.10;45.50
6654;DHT22;3363;50.942;7.034;2023-05-29T07:40:53;18.20;46.30
6654;DHT22;3363;50.942;7.034;2023-05-29T07:43:20;18.10;46.70
6654;DHT22;3363;50.942;7.034;2023-05-29T07:45:48;18.20;46.30
6654;DHT22;3363;50.942;7.034;2023-05-29T07:48:15;18.20;45.90
6654;DHT22;3363;50.942;7.034;2023-05-29T07:50:41;18.20;45.60
6654;DHT22;3363;50.942;7.034;2023-05-29T07:53:08;18.20;46.30
6654;DHT22;3363;50.942;7.034;2023-05-29T07:55:35;18.30;45.80
6654;DHT22;3363;50.942;7.034;2023-05-29T07:58:01;18.20;46.80
6654;DHT22;3363;50.942;7.034;2023-05-29T08:00:28;18.10;46.60
6654;DHT22;3363;50.942;7.034;2023-05-29T08:02:56;18.10;48.20
6654;DHT22;3363;50.942;7.034;2023-05-29T08:05:23;18.20;46.50
6654;DHT22;3363;50.942;7.034;2023-05-29T08:07:50;18.40;46.30
6654;DHT22;3363;50.942;7.034;2023-05-29T08:10:17;18.50;45.80
6654;DHT22;3363;50.942;7.034;2023-05-29T08:12:43;18.30;45.80
6654;DHT22;3363;50.942;7.034;2023-05-29T08:15:10;18.30;46.30
6654;DHT22;3363;50.942;7.034;2023-05-29T08:17:38;18.30;46.10
6654;DHT22;3363;50.942;7.034;2023-05-29T08:20:06;18.40;46.00
6654;DHT22;3363;50.942;7.034;2023-05-29T08:22:35;18.40;45.80
6654;DHT22;3363;50.942;7.034;2023-05-29T08:25:02;18.60;45.80
6654;DHT22;3363;50.942;7.034;2023-05-29T08:27:28;18.60;46.00
6654;DHT22;3363;50.942;7.034;2023-05-29T08:29:56;18.70;45.00
6654;DHT22;3363;50.942;7.034;2023-05-29T08:32:22;18.70;45.50
6654;DHT22;3363;50.942;7.034;2023-05-29T08:34:49;18.80;46.90
6654;DHT22;3363;50.942;7.034;2023-05-29T08:37:17;18.80;45.70
6654;DHT22;3363;50.942;7.034;2023-05-29T08:39:44;18.80;45.40
6654;DHT22;3363;50.942;7.034;2023-05-29T08:42:12;18.80;46.00
6654;DHT22;3363;50.942;7.034;2023-05-29T08:44:40;18.70;46.90
6654;DHT22;3363;50.942;7.034;2023-05-29T08:47:07;18.80;46.00
6654;DHT22;3363;50.942;7.034;2023-05-29T08:49:38;19.00;45.20
6654;DHT22;3363;50.942;7.034;2023-05-29T08:52:08;19.10;45.30
6654;DHT22;3363;50.942;7.034;2023-05-29T08:54:37;19.20;45.30
6654;DHT22;3363;50.942;7.034;2023-05-29T08:57:04;19.20;45.00
6654;DHT22;3363;50.942;7.034;2023-05-29T08:59:31;19.40;44.60
6654;DHT22;3363;50.942;7.034;2023-05-29T09:01:58;19.20;45.40
6654;DHT22;3363;50.942;7.034;2023-05-29T09:04:25;19.20;45.40
6654;DHT22;3363;50.942;7.034;2023-05-29T09:06:52;19.40;44.30
6654;DHT22;3363;50.942;7.034;2023-05-29T09:09:20;19.40;44.90
6654;DHT22;3363;50.942;7.034;2023-05-29T09:11:49;19.50;44.60
6654;DHT22;3363;50.942;7.034;2023-05-29T09:14:33;19.70;44.50
6654;DHT22;3363;50.942;7.034;2023-05-29T09:17:00;19.80;43.70
6654;DHT22;3363;50.942;7.034;2023-05-29T09:19:27;19.80;43.70
6654;DHT22;3363;50.942;7.034;2023-05-29T09:22:00;20.00;43.30
6654;DHT22;3363;50.942;7.034;2023-05-29T09:24:27;20.00;45.60
6654;DHT22;3363;50.942;7.034;2023-05-29T09:26:55;20.00;43.40
6654;DHT22;3363;50.942;7.034;2023-05-29T09:29:22;20.20;43.20
6654;DHT22;3363;50.942;7.034;2023-05-29T09:31:50;20.20;43.10
6654;DHT22;3363;50.942;7.034;2023-05-29T09:34:17;20.30;43.50
6654;DHT22;3363;50.942;7.034;2023-05-29T09:36:44;20.40;43.50
6654;DHT22;3363;50.942;7.034;2023-05-29T09:39:10;20.50;42.70
6654;DHT22;3363;50.942;7.034;2023-05-29T09:41:41;20.60;43.10
6654;DHT22;3363;50.942;7.034;2023-05-29T09:44:09;20.50;42.40
6654;DHT22;3363;50.942;7.034;2023-05-29T09:46:38;20.00;42.90
6654;DHT22;3363;50.942;7.034;2023-05-29T09:49:07;20.30;43.20
6654;DHT22;3363;50.942;7.034;2023-05-29T09:51:34;20.40;42.70
6654;DHT22;3363;50.942;7.034;2023-05-29T09:54:12;20.50;42.90
6654;DHT22;3363;50.942;7.034;2023-05-29T09:56:40;20.70;42.60
6654;DHT22;3363;50.942;7.034;2023-05-29T09:59:07;20.70;42.40
6654;DHT22;3363;50.942;7.034;2023-05-29T10:01:37;20.80;42.30
6654;DHT22;3363;50.942;7.034;2023-05-29T10:04:04;20.70;41.80
6654;DHT22;3363;50.942;7.034;2023-05-29T10:06:31;20.90;42.20
6654;DHT22;3363;50.942;7.034;2023-05-29T10:08:59;21.00;41.40
6654;DHT22;3363;50.942;7.034;2023-05-29T10:11:25;21.00;42.00
6654;DHT22;3363;50.942;7.034;2023-05-29T10:13:53;20.90;42.30
6654;DHT22;3363;50.942;7.034;2023-05-29T10:16:21;20.70;41.80
6654;DHT22;3363;50.942;7.034;2023-05-29T10:18:52;21.00;41.80
6654;DHT22;3363;50.942;7.034;2023-05-29T10:21:20;21.20;42.50
6654;DHT22;3363;50.942;7.034;2023-05-29T10:23:47;21.10;41.50
6654;DHT22;3363;50.942;7.034;2023-05-29T10:26:15;21.30;41.10
6654;DHT22;3363;50.942;7.034;2023-05-29T10:28:49;21.50;40.60
6654;DHT22;3363;50.942;7.034;2023-05-29T10:31:18;21.50;40.70
6654;DHT22;3363;50.942;7.034;2023-05-29T10:33:59;21.50;41.70
6654;DHT22;3363;50.942;7.034;2023-05-29T10:36:28;21.50;41.10
6654;DHT22;3363;50.942;7.034;2023-05-29T10:38:57;21.50;41.10
6654;DHT22;3363;50.942;7.034;2023-05-29T10:41:30;21.50;40.60
6654;DHT22;3363;50.942;7.034;2023-05-29T10:43:58;21.50;40.90
6654;DHT22;3363;50.942;7.034;2023-05-29T10:49:24;21.50;41.10
6654;DHT22;3363;50.942;7.034;2023-05-29T10:51:51;21.70;41.00
6654;DHT22;3363;50.942;7.034;2023-05-29T10:54:18;21.70;40.90
6654;DHT22;3363;50.942;7.034;2023-05-29T10:56:51;21.80;40.70
6654;DHT22;3363;50.942;7.034;2023-05-29T10:59:18;21.80;40.30
6654;DHT22;3363;50.942;7.034;2023-05-29T11:01:45;21.90;40.20
6654;DHT22;3363;50.942;7.034;2023-05-29T11:04:31;22.00;40.00
6654;DHT22;3363;50.942;7.034;2023-05-29T11:06:59;22.00;39.80
6654;DHT22;3363;50.942;7.034;2023-05-29T11:09:30;22.10;40.40
6654;DHT22;3363;50.942;7.034;2023-05-29T11:14:53;22.10;40.80
6654;DHT22;3363;50.942;7.034;2023-05-29T11:17:29;22.10;40.20
6654;DHT22;3363;50.942;7.034;2023-05-29T11:20:00;22.10;40.20
6654;DHT22;3363;50.942;7.034;2023-05-29T11:22:30;22.00;40.00
6654;DHT22;3363;50.942;7.034;2023-05-29T11:24:59;21.90;40.50
6654;DHT22;3363;50.942;7.034;2023-05-29T11:27:25;22.20;39.50
6654;DHT22;3363;50.942;7.034;2023-05-29T11:29:52;22.20;40.80
6654;DHT22;3363;50.942;7.034;2023-05-29T11:32:20;22.30;40.00
6654;DHT22;3363;50.942;7.034;2023-05-29T11:34:48;22.40;39.90
6654;DHT22;3363;50.942;7.034;2023-05-29T11:37:17;22.40;39.40
6654;DHT22;3363;50.942;7.034;2023-05-29T11:39:45;22.40;41.40
6654;DHT22;3363;50.942;7.034;2023-05-29T11:42:12;22.30;40.20
6654;DHT22;3363;50.942;7.034;2023-05-29T11:44:38;22.00;39.20
6654;DHT22;3363;50.942;7.034;2023-05-29T11:47:05;22.00;40.60
6654;DHT22;3363;50.942;7.034;2023-05-29T11:49:33;22.30;40.10
6654;DHT22;3363;50.942;7.034;2023-05-29T11:52:08;22.40;40.40
6654;DHT22;3363;50.942;7.034;2023-05-29T11:54:36;22.50;39.40
6654;DHT22;3363;50.942;7.034;2023-05-29T11:57:03;22.70;39.00
6654;DHT22;3363;50.942;7.034;2023-05-29T11:59:31;22.90;38.70
6654;DHT22;3363;50.942;7.034;2023-05-29T12:01:58;22.90;41.20
6654;DHT22;3363;50.942;7.034;2023-05-29T12:04:24;22.70;39.10
6654;DHT22;3363;50.942;7.034;2023-05-29T12:06:51;22.40;39.20
6654;DHT22;3363;50.942;7.034;2023-05-29T12:09:24;22.40;39.80
6654;DHT22;3363;50.942;7.034;2023-05-29T12:11:53;22.50;39.50
6654;DHT22;3363;50.942;7.034;2023-05-29T12:14:19;22.70;39.10
6654;DHT22;3363;50.942;7.034;2023-05-29T12:16:46;22.70;37.90
6654;DHT22;3363;50.942;7.034;2023-05-29T12:19:13;22.80;38.40
6654;DHT22;3363;50.942;7.034;2023-05-29T12:21:41;22.90;38.20
6654;DHT22;3363;50.942;7.034;2023-05-29T12:24:08;22.90;38.30
6654;DHT22;3363;50.942;7.034;2023-05-29T12:26:35;22.90;38.10
6654;DHT22;3363;50.942;7.034;2023-05-29T12:29:03;22.90;38.00
6654;DHT22;3363;50.942;7.034;2023-05-29T12:31:31;22.90;37.90
6654;DHT22;3363;50.942;7.034;2023-05-29T12:34:02;22.80;37.30
6654;DHT22;3363;50.942;7.034;2023-05-29T12:36:33;22.90;37.40
6654;DHT22;3363;50.942;7.034;2023-05-29T12:39:04;22.90;36.60
6654;DHT22;3363;50.942;7.034;2023-05-29T12:41:33;22.90;38.20
6654;DHT22;3363;50.942;7.034;2023-05-29T12:44:01;22.90;38.50
6654;DHT22;3363;50.942;7.034;2023-05-29T12:46:35;23.00;37.90
6654;DHT22;3363;50.942;7.034;2023-05-29T12:49:11;23.10;37.60
6654;DHT22;3363;50.942;7.034;2023-05-29T12:51:39;22.90;38.10
6654;DHT22;3363;50.942;7.034;2023-05-29T12:54:06;23.00;38.00
6654;DHT22;3363;50.942;7.034;2023-05-29T12:56:33;23.00;37.90
6654;DHT22;3363;50.942;7.034;2023-05-29T12:58:59;23.00;40.70
6654;DHT22;3363;50.942;7.034;2023-05-29T13:01:26;23.00;38.00
6654;DHT22;3363;50.942;7.034;2023-05-29T13:03:54;23.10;38.00
6654;DHT22;3363;50.942;7.034;2023-05-29T13:06:21;23.20;37.70
6654;DHT22;3363;50.942;7.034;2023-05-29T13:08:47;23.10;37.60
6654;DHT22;3363;50.942;7.034;2023-05-29T13:11:14;23.00;36.70
6654;DHT22;3363;50.942;7.034;2023-05-29T13:13:41;23.20;37.70
6654;DHT22;3363;50.942;7.034;2023-05-29T13:16:07;23.10;37.60
6654;DHT22;3363;50.942;7.034;2023-05-29T13:18:34;23.20;37.00
6654;DHT22;3363;50.942;7.034;2023-05-29T13:21:02;23.30;38.90
6654;DHT22;3363;50.942;7.034;2023-05-29T13:23:29;23.30;37.20
6654;DHT22;3363;50.942;7.034;2023-05-29T13:25:55;23.20;36.80
6654;DHT22;3363;50.942;7.034;2023-05-29T13:28:22;23.30;36.40
6654;DHT22;3363;50.942;7.034;2023-05-29T13:30:49;23.20;36.40
6654;DHT22;3363;50.942;7.034;2023-05-29T13:33:16;23.20;37.00
6654;DHT22;3363;50.942;7.034;2023-05-29T13:35:42;23.30;36.40
6654;DHT22;3363;50.942;7.034;2023-05-29T13:38:10;23.20;36.40
6654;DHT22;3363;50.942;7.034;2023-05-29T13:40:37;23.40;35.80
6654;DHT22;3363;50.942;7.034;2023-05-29T13:43:03;23.30;37.80
6654;DHT22;3363;50.942;7.034;2023-05-29T13:45:30;23.10;36.40
6654;DHT22;3363;50.942;7.034;2023-05-29T13:47:57;23.20;36.40
6654;DHT22;3363;50.942;7.034;2023-05-29T13:50:23;23.10;36.20
6654;DHT22;3363;50.942;7.034;2023-05-29T13:52:51;23.30;36.70
6654;DHT22;3363;50.942;7.034;2023-05-29T13:55:19;23.20;35.10
6654;DHT22;3363;50.942;7.034;2023-05-29T13:57:45;23.40;35.80
6654;DHT22;3363;50.942;7.034;2023-05-29T14:00:12;23.20;37.00
6654;DHT22;3363;50.942;7.034;2023-05-29T14:02:39;23.30;36.00
6654;DHT22;3363;50.942;7.034;2023-05-29T14:05:06;23.20;36.20
6654;DHT22;3363;50.942;7.034;2023-05-29T14:07:33;23.10;36.10
6654;DHT22;3363;50.942;7.034;2023-05-29T14:10:00;23.10;36.20
6654;DHT22;3363;50.942;7.034;2023-05-29T14:12:27;22.90;34.70
6654;DHT22;3363;50.942;7.034;2023-05-29T14:14:54;22.70;36.50
6654;DHT22;3363;50.942;7.034;2023-05-29T14:17:21;22.90;35.40
6654;DHT22;3363;50.942;7.034;2023-05-29T14:19:48;23.10;36.60
6654;DHT22;3363;50.942;7.034;2023-05-29T14:22:14;23.10;36.40
6654;DHT22;3363;50.942;7.034;2023-05-29T14:24:41;23.20;36.40
6654;DHT22;3363;50.942;7.034;2023-05-29T14:27:07;23.00;37.50
6654;DHT22;3363;50.942;7.034;2023-05-29T14:29:35;23.00;36.20
6654;DHT22;3363;50.942;7.034;2023-05-29T14:32:02;22.90;37.40
6654;DHT22;3363;50.942;7.034;2023-05-29T14:36:57;22.50;37.00
6654;DHT22;3363;50.942;7.034;2023-05-29T14:39:23;22.70;37.20
6654;DHT22;3363;50.942;7.034;2023-05-29T14:41:50;22.80;37.30
6654;DHT22;3363;50.942;7.034;2023-05-29T14:44:17;22.80;37.30
6654;DHT22;3363;50.942;7.034;2023-05-29T14:46:45;22.80;37.30
6654;DHT22;3363;50.942;7.034;2023-05-29T14:49:12;22.90;37.20
6654;DHT22;3363;50.942;7.034;2023-05-29T14:51:38;22.90;36.60
6654;DHT22;3363;50.942;7.034;2023-05-29T14:54:06;23.00;36.60
6654;DHT22;3363;50.942;7.034;2023-05-29T14:56:34;23.00;35.80
6654;DHT22;3363;50.942;7.034;2023-05-29T14:59:01;23.00;36.50
6654;DHT22;3363;50.942;7.034;2023-05-29T15:01:28;23.10;36.10
6654;DHT22;3363;50.942;7.034;2023-05-29T15:03:56;22.90;36.00
6654;DHT22;3363;50.942;7.034;2023-05-29T15:06:22;22.90;36.60
6654;DHT22;3363;50.942;7.034;2023-05-29T15:08:49;22.80;37.30
6654;DHT22;3363;50.942;7.034;2023-05-29T15:11:16;22.90;36.20
6654;DHT22;3363;50.942;7.034;2023-05-29T15:13:44;22.80;36.70
6654;DHT22;3363;50.942;7.034;2023-05-29T15:16:11;22.80;35.40
6654;DHT22;3363;50.942;7.034;2023-05-29T15:18:38;22.90;35.00
6654;DHT22;3363;50.942;7.034;2023-05-29T15:21:06;22.70;35.80
6654;DHT22;3363;50.942;7.034;2023-05-29T15:23:33;22.80;36.30
6654;DHT22;3363;50.942;7.034;2023-05-29T15:26:01;22.90;36.50
6654;DHT22;3363;50.942;7.034;2023-05-29T15:28:29;22.90;36.40
6654;DHT22;3363;50.942;7.034;2023-05-29T15:30:56;22.80;36.10
6654;DHT22;3363;50.942;7.034;2023-05-29T15:33:23;22.80;36.20
6654;DHT22;3363;50.942;7.034;2023-05-29T15:35:49;22.70;36.60
6654;DHT22;3363;50.942;7.034;2023-05-29T15:38:17;22.50;37.10
6654;DHT22;3363;50.942;7.034;2023-05-29T15:40:44;22.70;37.20
6654;DHT22;3363;50.942;7.034;2023-05-29T15:43:11;22.70;35.90
6654;DHT22;3363;50.942;7.034;2023-05-29T15:45:37;22.70;35.00
6654;DHT22;3363;50.942;7.034;2023-05-29T15:48:04;22.70;36.10
6654;DHT22;3363;50.942;7.034;2023-05-29T15:50:31;22.70;35.60
6654;DHT22;3363;50.942;7.034;2023-05-29T15:52:58;22.40;34.90
6654;DHT22;3363;50.942;7.034;2023-05-29T15:55:26;22.40;36.30
6654;DHT22;3363;50.942;7.034;2023-05-29T15:57:52;22.40;36.20
6654;DHT22;3363;50.942;7.034;2023-05-29T16:00:19;22.50;35.10
6654;DHT22;3363;50.942;7.034;2023-05-29T16:02:46;22.40;36.90
6654;DHT22;3363;50.942;7.034;2023-05-29T16:05:12;22.40;36.90
6654;DHT22;3363;50.942;7.034;2023-05-29T16:07:39;22.40;36.90
6654;DHT22;3363;50.942;7.034;2023-05-29T16:10:07;22.40;36.90
6654;DHT22;3363;50.942;7.034;2023-05-29T16:12:35;22.50;36.10